Weather at Konopiska Airstrip

Public forecast

Using degrees Celsius for public forecast. Weather courtesy of forecast.io.

Closest aviation weather report (METAR) to Konopiska Airstrip

Closest report is Katowice Wojciech Korfanty International Airport, 16.1 nm (29.8 km) S.

2024/05/20 03:30 (retrieved 28 minutes ago)

EPKT 200330Z VRB01KT 2000 0200NW BCFG BR NSC 11/11 Q1012

Closest aviation forecast (TAF) to Konopiska Airstrip

Forecast is more than 6 hours old.

Closest forecast is Sliač Airport, 126.3 nm (233.9 km) S.

2024/05/19 18:45 (retrieved 9 hours ago)

TAF TAF LZSL 191630Z 1918/2006 VRB03KT 9999 FEW050 TEMPO 2001/2006 0300 FG BKN001